Time;durP1;ratioP1;P1;durP2;ratioP2;P2;SDS_P1;SDS_P2;PMS_P1;PMS_P2;Temp;Humidity;BMP_temperature;BMP_pressure;BME280_temperature;BME280_humidity;BME280_pressure;Samples;Min_cycle;Max_cycle;Signal;HPM_P1;HPM_P2
2021/05/17 00:00:46;;;;;;;4.28;1.80;;;;;;;18.69;47.00;99791.28;5058165;28;20069;-72
2021/05/17 00:03:14;;;;;;;5.18;1.70;;;;;;;18.70;46.94;99786.72;5091311;28;20101;-73
2021/05/17 00:05:41;;;;;;;6.38;1.70;;;;;;;18.67;47.11;99785.31;5074675;28;20048;-73
2021/05/17 00:08:08;;;;;;;5.20;1.80;;;;;;;18.69;46.97;99785.91;5045561;28;20131;-73
2021/05/17 00:10:36;;;;;;;4.43;1.75;;;;;;;18.69;46.94;99785.91;5085375;28;20043;-73
2021/05/17 00:13:04;;;;;;;4.88;1.77;;;;;;;18.70;46.88;99794.78;5091205;28;20102;-72
2021/05/17 00:15:31;;;;;;;3.92;1.70;;;;;;;18.69;46.93;99793.97;5092216;28;20539;-72
2021/05/17 00:17:58;;;;;;;4.63;1.60;;;;;;;18.69;46.79;99799.34;5061644;28;20044;-72
2021/05/17 00:20:26;;;;;;;4.18;1.70;;;;;;;18.70;47.01;99795.63;5105899;28;20068;-72
2021/05/17 00:22:53;;;;;;;4.00;1.67;;;;;;;18.69;46.84;99802.03;5114982;28;20070;-72
2021/05/17 00:25:24;;;;;;;3.45;1.50;;;;;;;18.68;46.95;99796.88;5116484;27;20168;-73
2021/05/17 00:27:53;;;;;;;2.95;1.50;;;;;;;18.68;47.06;99795.03;5098680;28;20697;-73
2021/05/17 00:30:22;;;;;;;2.97;1.40;;;;;;;18.69;46.96;99799.34;5114917;28;20130;-73
2021/05/17 00:32:49;;;;;;;4.70;1.70;;;;;;;18.68;47.18;99803.09;5081738;28;20491;-73
2021/05/17 00:35:17;;;;;;;3.95;1.63;;;;;;;18.68;46.88;99796.88;5098128;28;20511;-72
2021/05/17 00:37:44;;;;;;;2.95;1.40;;;;;;;18.66;47.10;99797.09;5097686;28;20046;-73
2021/05/17 00:40:12;;;;;;;3.42;1.50;;;;;;;18.67;47.02;99803.31;5114363;28;20130;-73
2021/05/17 00:42:39;;;;;;;3.97;1.60;;;;;;;18.67;47.12;99804.13;5081547;28;20073;-73
2021/05/17 00:45:10;;;;;;;3.30;1.50;;;;;;;18.68;47.10;99804.94;5097917;28;20060;-73
2021/05/17 00:47:40;;;;;;;3.60;1.50;;;;;;;18.67;47.07;99798.75;5114751;28;20050;-73
2021/05/17 00:50:09;;;;;;;3.15;1.52;;;;;;;18.67;47.14;99798.75;5106121;28;20040;-73
2021/05/17 00:52:38;;;;;;;5.65;1.60;;;;;;;18.67;47.10;99797.94;5077080;28;20036;-73
2021/05/17 00:55:06;;;;;;;3.63;1.58;;;;;;;18.67;46.86;99796.06;5096819;28;20055;-73
2021/05/17 00:57:34;;;;;;;3.20;1.50;;;;;;;18.68;47.07;99796.88;5097449;28;20074;-73
2021/05/17 01:00:06;;;;;;;4.10;1.48;;;;;;;18.67;47.16;99797.94;5114649;28;20112;-73
2021/05/17 01:02:38;;;;;;;2.40;1.27;;;;;;;18.67;47.07;99789.88;5114384;28;20450;-73
2021/05/17 01:05:17;;;;;;;3.40;1.50;;;;;;;18.67;47.13;99803.31;5114085;28;20047;-73
2021/05/17 01:07:47;;;;;;;4.70;1.73;;;;;;;18.67;47.16;99803.31;5097039;28;20040;-73
2021/05/17 01:10:17;;;;;;;3.88;1.60;;;;;;;18.66;47.14;99802.47;5097589;28;20075;-73
2021/05/17 01:12:46;;;;;;;3.92;1.50;;;;;;;18.65;47.22;99800.84;5080940;28;20036;-73
2021/05/17 01:15:17;;;;;;;3.10;1.40;;;;;;;18.67;47.36;99803.31;5115339;28;20078;-73
2021/05/17 01:17:44;;;;;;;3.05;1.40;;;;;;;18.67;47.16;99803.31;5079960;28;20116;-73
2021/05/17 01:20:14;;;;;;;3.83;1.60;;;;;;;18.67;47.04;99808.69;5105160;28;20071;-73
2021/05/17 01:23:01;;;;;;;2.17;1.17;;;;;;;18.65;47.06;99803.53;5103899;28;20050;-73
2021/05/17 01:25:31;;;;;;;3.85;1.40;;;;;;;18.65;47.14;99803.53;5097220;28;20043;-73
2021/05/17 01:27:59;;;;;;;3.08;1.27;;;;;;;18.66;47.23;99807.03;5113578;28;20407;-73
2021/05/17 01:30:27;;;;;;;2.35;1.38;;;;;;;18.65;47.13;99798.16;5115059;28;20051;-72
2021/05/17 01:32:55;;;;;;;4.95;1.60;;;;;;;18.65;47.12;99792.78;5113753;28;20062;-73
2021/05/17 01:35:22;;;;;;;4.85;1.40;;;;;;;18.64;46.99;99795.72;5096934;28;20522;-73
2021/05/17 01:37:51;;;;;;;3.25;1.40;;;;;;;18.65;47.17;99800.84;5080043;28;20160;-73
2021/05/17 01:40:19;;;;;;;3.88;1.40;;;;;;;18.58;47.13;99779.47;5097401;28;20484;-73
2021/05/17 01:42:48;;;;;;;4.22;1.42;;;;;;;18.64;47.22;99788.47;5080667;28;20120;-73
2021/05/17 01:45:15;;;;;;;3.67;1.40;;;;;;;18.65;47.20;99794.69;5113640;28;20123;-72
2021/05/17 01:47:45;;;;;;;3.60;1.35;;;;;;;18.64;46.87;99799.22;5113429;28;20069;-73
2021/05/17 01:50:16;;;;;;;3.50;1.52;;;;;;;18.65;47.23;99802.72;5104469;28;20055;-73
2021/05/17 01:52:43;;;;;;;3.77;1.53;;;;;;;18.65;47.18;99803.53;5092927;28;20044;-72
2021/05/17 01:55:12;;;;;;;2.88;1.40;;;;;;;18.64;47.29;99799.22;5059484;28;20050;-73
2021/05/17 01:57:39;;;;;;;3.45;1.42;;;;;;;18.64;47.26;99795.72;5064525;28;20496;-72
2021/05/17 02:00:13;;;;;;;3.33;1.33;;;;;;;18.64;47.13;99801.91;5093159;28;20098;-72
2021/05/17 02:02:43;;;;;;;4.07;1.40;;;;;;;18.65;47.31;99808.91;5094112;28;20062;-72
2021/05/17 02:05:18;;;;;;;3.10;1.30;;;;;;;18.65;47.12;99802.72;5094089;28;20493;-73
2021/05/17 02:07:45;;;;;;;4.68;1.50;;;;;;;18.64;47.05;99801.91;5092189;28;20039;-72
2021/05/17 02:10:13;;;;;;;4.80;1.45;;;;;;;18.65;47.04;99800.84;5093745;28;20052;-72
2021/05/17 02:12:41;;;;;;;2.97;1.42;;;;;;;18.63;47.25;99792.22;5092774;28;20044;-73
2021/05/17 02:15:12;;;;;;;2.65;1.30;;;;;;;18.62;47.11;99793.25;5060642;28;20082;-73
2021/05/17 02:17:41;;;;;;;3.33;1.48;;;;;;;18.64;47.12;99793.84;5092384;28;20036;-73
2021/05/17 02:20:12;;;;;;;2.97;1.40;;;;;;;18.65;47.14;99800.03;5100464;28;20039;-72
2021/05/17 02:22:44;;;;;;;4.60;1.55;;;;;;;18.65;46.97;99797.38;5114045;28;20062;-73
2021/05/17 02:25:18;;;;;;;2.75;1.30;;;;;;;18.65;47.13;99800.03;5112836;28;20070;-73
2021/05/17 02:27:45;;;;;;;2.83;1.23;;;;;;;18.64;47.39;99804.56;5112721;28;20093;-72
2021/05/17 02:30:14;;;;;;;3.92;1.27;;;;;;;18.64;47.38;99815.31;5112734;28;20040;-73
2021/05/17 02:32:42;;;;;;;2.53;1.13;;;;;;;18.63;47.18;99808.34;5112301;28;20035;-72
2021/05/17 02:35:12;;;;;;;2.53;1.25;;;;;;;18.64;47.25;99809.13;5112582;28;20043;-73
2021/05/17 02:37:39;;;;;;;3.35;1.40;;;;;;;18.64;47.23;99809.94;5113275;28;20403;-73
2021/05/17 02:40:07;;;;;;;2.90;1.27;;;;;;;18.62;47.20;99814.75;5095864;28;20055;-72
2021/05/17 02:42:42;;;;;;;3.28;1.40;;;;;;;18.63;47.44;99812.84;5079428;28;20047;-73
2021/05/17 02:45:12;;;;;;;2.38;1.20;;;;;;;18.63;47.32;99819.06;5112226;28;20491;-72
2021/05/17 02:47:39;;;;;;;2.47;1.30;;;;;;;18.63;47.29;99810.16;5102959;28;20105;-73
2021/05/17 02:50:09;;;;;;;3.03;1.27;;;;;;;18.62;47.34;99812.06;5095909;28;20047;-73
2021/05/17 02:52:37;;;;;;;2.88;1.30;;;;;;;18.64;47.27;99814.50;5095598;28;20064;-73
2021/05/17 02:55:11;;;;;;;1.92;1.17;;;;;;;18.62;47.31;99817.41;5093908;28;20050;-72
2021/05/17 02:57:48;;;;;;;3.47;1.23;;;;;;;18.62;47.32;99812.06;5092888;28;20054;-73
2021/05/17 03:00:18;;;;;;;2.80;1.20;;;;;;;18.62;47.35;99814.75;5075017;28;20039;-73
2021/05/17 03:02:57;;;;;;;4.95;1.30;;;;;;;18.63;47.42;99811.00;5093220;28;20135;-72
2021/05/17 03:05:25;;;;;;;2.05;1.00;;;;;;;18.63;47.15;99813.69;5058699;28;20079;-73
2021/05/17 03:07:58;;;;;;;2.95;1.30;;;;;;;18.63;47.42;99819.06;5058122;28;20048;-73
2021/05/17 03:10:27;;;;;;;3.60;1.10;;;;;;;18.63;47.36;99818.22;5075342;28;20043;-72
2021/05/17 03:12:57;;;;;;;2.45;1.30;;;;;;;18.56;47.32;99807.59;5075248;28;20063;-73
2021/05/17 03:15:27;;;;;;;4.03;1.20;;;;;;;18.61;47.42;99819.28;5075303;28;20492;-73
2021/05/17 03:17:56;;;;;;;2.72;1.20;;;;;;;18.61;47.34;99824.66;5058711;28;20044;-73
2021/05/17 03:20:24;;;;;;;2.35;1.10;;;;;;;18.63;47.27;99819.06;5085832;28;20071;-73
2021/05/17 03:22:53;;;;;;;2.65;0.98;;;;;;;18.62;47.24;99814.75;5091555;28;20115;-72
2021/05/17 03:25:24;;;;;;;2.47;1.10;;;;;;;18.61;47.38;99816.63;5091773;28;20102;-73
2021/05/17 03:27:52;;;;;;;3.92;1.15;;;;;;;18.61;47.40;99827.34;5091555;28;20105;-73
2021/05/17 03:30:19;;;;;;;4.65;1.20;;;;;;;18.54;47.47;99809.72;5091656;28;20036;-73
2021/05/17 03:32:47;;;;;;;3.60;1.10;;;;;;;18.61;47.36;99824.66;5074749;28;20028;-72
2021/05/17 03:35:14;;;;;;;2.08;1.17;;;;;;;18.61;47.53;99826.53;5091409;28;20507;-73
2021/05/17 03:37:41;;;;;;;2.53;1.20;;;;;;;18.62;47.36;99820.09;5074610;28;20048;-73
2021/05/17 03:40:09;;;;;;;3.05;1.00;;;;;;;18.61;47.38;99827.34;5091727;28;20123;-73
2021/05/17 03:42:37;;;;;;;2.35;1.10;;;;;;;18.61;47.33;99821.16;5058361;28;20036;-73
2021/05/17 03:45:06;;;;;;;2.70;1.10;;;;;;;18.61;47.31;99824.66;5092690;28;20043;-72
2021/05/17 03:47:33;;;;;;;2.05;1.00;;;;;;;18.61;47.43;99823.84;5085613;28;20063;-73
2021/05/17 03:50:00;;;;;;;1.83;0.90;;;;;;;18.62;47.46;99822.78;5100129;28;20555;-73
2021/05/17 03:52:28;;;;;;;1.42;0.90;;;;;;;18.59;47.67;99821.41;5082102;28;20040;-73
2021/05/17 03:54:55;;;;;;;1.67;0.93;;;;;;;18.62;47.49;99833.53;5115708;28;20126;-73
2021/05/17 03:57:21;;;;;;;2.13;1.02;;;;;;;18.60;47.46;99825.69;5117269;28;20056;-73
2021/05/17 03:59:48;;;;;;;2.20;1.02;;;;;;;18.61;47.46;99834.59;5082146;28;20043;-73
2021/05/17 04:02:18;;;;;;;2.15;1.00;;;;;;;18.63;47.52;99823.59;5081711;28;20122;-73
2021/05/17 04:04:56;;;;;;;1.98;1.00;;;;;;;18.61;47.51;99824.66;5115235;28;20488;-73
2021/05/17 04:07:40;;;;;;;1.65;0.98;;;;;;;18.61;47.59;99831.91;5114862;28;20067;-73
2021/05/17 04:13:27;;;;;;;2.58;1.17;;;;;;;18.56;47.57;99831.78;5116352;28;20035;-73
2021/05/17 04:15:41;;;;;;;1.90;1.00;;;;;;;18.63;47.40;99837.88;5101448;28;20499;-73
2021/05/17 04:18:09;;;;;;;2.08;1.00;;;;;;;18.62;47.40;99838.91;5108200;28;20071;-73
2021/05/17 04:20:36;;;;;;;2.42;1.00;;;;;;;18.62;47.25;99844.28;5053928;28;20048;-73
2021/05/17 04:23:03;;;;;;;3.88;0.95;;;;;;;18.63;47.48;99850.47;5077771;28;20044;-73
2021/05/17 04:25:30;;;;;;;1.45;0.90;;;;;;;18.63;47.25;99845.09;5061611;28;20093;-73
2021/05/17 04:27:57;;;;;;;2.50;1.10;;;;;;;18.59;47.44;99839.34;5077931;28;20051;-73
2021/05/17 04:30:24;;;;;;;3.08;0.90;;;;;;;18.62;47.18;99846.97;5094889;28;20145;-73
2021/05/17 04:32:51;;;;;;;2.45;0.90;;;;;;;18.61;47.58;99851.53;5095915;28;20036;-73
2021/05/17 04:35:17;;;;;;;3.63;1.15;;;;;;;18.63;47.40;99848.63;5094580;28;20119;-73
2021/05/17 04:37:44;;;;;;;1.55;0.80;;;;;;;18.63;47.49;99845.09;5093956;28;20617;-73
2021/05/17 04:40:12;;;;;;;1.58;0.95;;;;;;;18.63;47.25;99851.31;5044901;28;20134;-73
2021/05/17 04:42:41;;;;;;;1.98;1.10;;;;;;;18.64;47.55;99852.94;5095444;28;20111;-73
2021/05/17 04:45:08;;;;;;;2.47;1.00;;;;;;;18.64;47.41;99854.81;5094446;28;20047;-73
2021/05/17 04:47:35;;;;;;;3.58;1.10;;;;;;;18.63;47.39;99853.16;5077631;28;20040;-73
2021/05/17 04:50:04;;;;;;;2.13;1.00;;;;;;;18.65;47.31;99861.81;5084861;28;20112;-73
2021/05/17 04:52:31;;;;;;;3.88;1.20;;;;;;;18.65;47.34;99859.94;5114493;28;20032;-73
2021/05/17 04:54:58;;;;;;;1.85;0.98;;;;;;;18.64;47.39;99855.59;5114417;28;20059;-73
2021/05/17 04:57:25;;;;;;;2.38;1.05;;;;;;;18.64;47.42;99855.59;5100816;28;20097;-73
2021/05/17 04:59:58;;;;;;;1.88;1.02;;;;;;;18.64;47.34;99858.28;5094163;28;20040;-73
2021/05/17 05:02:25;;;;;;;2.65;1.02;;;;;;;18.66;47.32;99855.38;5076659;28;20130;-73
2021/05/17 05:04:52;;;;;;;3.53;1.00;;;;;;;18.65;47.30;99859.13;5093833;28;20050;-73
2021/05/17 05:07:20;;;;;;;2.97;1.00;;;;;;;18.64;47.56;99868.22;5076625;28;20063;-73
2021/05/17 05:09:47;;;;;;;2.20;0.88;;;;;;;18.64;47.50;99862.84;5093889;28;20071;-73
2021/05/17 05:12:14;;;;;;;2.10;1.05;;;;;;;18.64;47.50;99860.97;5093758;28;20399;-73
2021/05/17 05:14:40;;;;;;;2.13;1.02;;;;;;;18.63;47.43;99864.72;5077288;28;20048;-73
2021/05/17 05:17:08;;;;;;;2.58;1.13;;;;;;;18.64;47.48;99865.53;5067088;28;20532;-72
2021/05/17 05:19:35;;;;;;;2.40;1.00;;;;;;;18.64;47.53;99860.16;5098747;28;20050;-73
2021/05/17 05:22:02;;;;;;;2.55;1.10;;;;;;;18.63;47.57;99862.03;5114178;28;20043;-73
2021/05/17 05:24:28;;;;;;;1.02;0.77;;;;;;;18.65;47.54;99870.69;5115009;28;20040;-73
2021/05/17 05:34:54;;;;;;;2.03;0.80;;;;;;;18.68;47.65;99861.34;5070198;28;20412;-72
2021/05/17 05:37:21;;;;;;;2.67;0.90;;;;;;;18.66;47.73;99861.56;5070145;28;20048;-71
2021/05/17 05:39:48;;;;;;;3.08;0.90;;;;;;;18.68;47.71;99872.09;5052575;28;20460;-72
2021/05/17 05:42:15;;;;;;;2.13;1.00;;;;;;;18.68;47.53;99861.34;5069422;28;20456;-72
2021/05/17 05:44:44;;;;;;;1.88;1.00;;;;;;;18.69;47.45;99869.19;5068961;28;20075;-72
2021/05/17 05:47:15;;;;;;;2.20;0.90;;;;;;;18.68;47.62;99862.19;5068471;28;20045;-72
2021/05/17 05:49:47;;;;;;;1.83;0.80;;;;;;;18.70;47.71;99864.63;5052786;28;20102;-74
2021/05/17 05:52:15;;;;;;;1.70;0.82;;;;;;;18.71;47.64;99861.72;5051981;28;20041;-72
2021/05/17 05:54:44;;;;;;;3.78;1.20;;;;;;;18.72;47.44;99867.88;5067702;28;20045;-74
2021/05/17 05:57:14;;;;;;;1.58;0.90;;;;;;;18.72;47.71;99873.25;5069852;28;20071;-73
2021/05/17 05:59:41;;;;;;;1.85;1.00;;;;;;;18.70;47.38;99870.84;5052261;28;20115;-72
2021/05/17 06:02:08;;;;;;;2.25;0.98;;;;;;;18.70;47.63;99864.63;5069184;28;20110;-74
2021/05/17 06:04:35;;;;;;;2.15;1.00;;;;;;;18.70;47.83;99870.00;5052647;28;20413;-74
2021/05/17 06:07:03;;;;;;;2.15;0.90;;;;;;;18.70;47.65;99870.84;5052161;28;20071;-73
2021/05/17 06:09:30;;;;;;;1.45;0.80;;;;;;;18.69;47.70;99879.91;5068203;28;20106;-73
2021/05/17 06:11:57;;;;;;;2.20;1.08;;;;;;;18.70;47.78;99875.38;5052383;28;20045;-72
2021/05/17 06:14:24;;;;;;;3.40;1.00;;;;;;;18.69;47.65;99871.88;5035357;28;20072;-72
2021/05/17 06:16:52;;;;;;;2.78;0.90;;;;;;;18.70;47.69;99881.56;5068277;28;20064;-71
2021/05/17 06:19:20;;;;;;;2.38;1.20;;;;;;;18.70;47.61;99888.78;5035893;28;20045;-72
2021/05/17 06:21:47;;;;;;;2.75;0.90;;;;;;;18.71;47.58;99885.88;5052081;28;20410;-74
2021/05/17 06:24:18;;;;;;;2.83;1.02;;;;;;;18.72;47.44;99887.53;5068158;28;20072;-73
2021/05/17 06:26:45;;;;;;;3.40;1.02;;;;;;;18.66;47.75;99876.88;5052374;28;20044;-74
2021/05/17 06:29:13;;;;;;;2.47;0.88;;;;;;;18.72;47.68;99889.38;5035507;28;20132;-74
2021/05/17 06:31:45;;;;;;;2.33;1.00;;;;;;;18.72;47.55;99886.69;5068156;28;20045;-74
2021/05/17 06:34:12;;;;;;;;;;;;;;;18.72;47.50;99887.53;5051474;28;20056;-72
2021/05/17 06:36:38;;;;;;;2.40;0.93;;;;;;;18.73;47.57;99891.03;5067758;28;19955;-74
2021/05/17 06:39:08;;;;;;;2.20;0.90;;;;;;;18.71;47.77;99893.94;5051177;28;20037;-74
2021/05/17 06:41:36;;;;;;;2.08;0.90;;;;;;;18.72;47.66;99895.59;5051928;28;20123;-74
2021/05/17 06:44:04;;;;;;;3.55;1.15;;;;;;;18.76;47.64;99893.28;5068439;28;20067;-73
2021/05/17 06:46:32;;;;;;;2.40;0.90;;;;;;;18.77;47.67;99900.25;5054139;28;20094;-73
2021/05/17 06:48:59;;;;;;;3.08;1.00;;;;;;;18.74;47.53;99888.13;5051533;28;20049;-73
2021/05/17 06:51:27;;;;;;;1.73;1.00;;;;;;;18.80;47.37;99894.44;5016173;28;20041;-73
2021/05/17 06:53:57;;;;;;;3.05;1.10;;;;;;;18.79;47.31;99899.00;5050578;28;20029;-73
2021/05/17 06:56:29;;;;;;;4.63;1.30;;;;;;;18.74;47.43;99900.75;5060753;28;20057;-73
2021/05/17 06:58:58;;;;;;;;;;;;;;;18.69;47.17;99903.28;5065080;28;20045;-73
2021/05/17 07:01:27;;;;;;;4.18;1.15;;;;;;;18.65;47.05;99902.91;5038990;28;19947;-73
2021/05/17 07:03:56;;;;;;;5.40;1.20;;;;;;;18.66;46.87;99909.09;5033698;28;20547;-73
2021/05/17 07:06:27;;;;;;;4.57;1.30;;;;;;;18.63;47.19;99904.19;5041106;28;20051;-73
2021/05/17 07:11:56;;;;;;;5.85;1.30;;;;;;;18.63;46.63;99913.06;5045010;28;20048;-74
2021/05/17 07:14:25;;;;;;;6.00;1.60;;;;;;;18.59;46.86;99915.41;5007223;28;20044;-75
2021/05/17 07:16:52;;;;;;;5.85;1.52;;;;;;;18.60;46.67;99916.22;5054117;28;20071;-73
2021/05/17 07:19:20;;;;;;;5.10;1.33;;;;;;;18.57;46.56;99916.66;5063416;28;20039;-73
2021/05/17 07:24:34;;;;;;;5.90;1.40;;;;;;;18.49;46.35;99922.34;5049671;28;20767;-74
2021/05/17 07:27:02;;;;;;;6.38;1.50;;;;;;;18.40;46.16;99917.28;5029281;28;20118;-75
2021/05/17 07:29:33;;;;;;;5.03;1.27;;;;;;;18.18;46.12;99921.47;5016140;28;20079;-74
2021/05/17 07:32:00;;;;;;;4.05;1.20;;;;;;;18.37;45.97;99920.44;5031115;28;20072;-74
2021/05/17 07:34:30;;;;;;;4.32;1.38;;;;;;;18.36;45.92;99917.97;5063196;28;20437;-75
2021/05/17 07:36:57;;;;;;;8.13;1.40;;;;;;;18.42;45.41;99917.88;5054221;28;20040;-75
2021/05/17 07:39:24;;;;;;;11.05;3.63;;;;;;;18.44;45.77;99922.22;5043669;28;20045;-73
2021/05/17 07:41:51;;;;;;;11.68;3.92;;;;;;;18.51;45.82;99925.63;5049516;28;20041;-73
2021/05/17 07:44:18;;;;;;;10.25;3.33;;;;;;;18.61;45.56;99918.69;5057179;28;20551;-73
2021/05/17 07:46:45;;;;;;;8.02;2.80;;;;;;;18.69;45.54;99916.72;5048772;28;20072;-73
2021/05/17 07:49:18;;;;;;;7.10;2.50;;;;;;;18.75;45.43;99921.97;5027619;28;20105;-74
2021/05/17 07:51:46;;;;;;;9.15;2.40;;;;;;;18.75;45.52;99915.81;5009242;28;20046;-74
2021/05/17 07:54:16;;;;;;;6.82;2.40;;;;;;;18.75;45.70;99911.25;5054424;28;20526;-73
2021/05/17 07:56:43;;;;;;;8.20;2.50;;;;;;;18.82;45.88;99918.44;5050207;28;20060;-73
2021/05/17 07:59:11;;;;;;;6.97;2.20;;;;;;;18.87;46.08;99919.38;5045010;28;20096;-73
2021/05/17 08:01:39;;;;;;;6.88;2.20;;;;;;;18.87;45.73;99918.56;5015528;28;20087;-73
2021/05/17 08:04:06;;;;;;;8.18;2.30;;;;;;;18.81;45.80;99917.63;5035454;28;20048;-75
2021/05/17 08:06:33;;;;;;;6.07;2.10;;;;;;;18.85;45.98;99916.09;5017629;28;20069;-73
2021/05/17 08:09:00;;;;;;;8.10;2.33;;;;;;;18.88;45.87;99918.34;5053816;28;20107;-73
2021/05/17 08:11:27;;;;;;;7.55;2.15;;;;;;;18.90;46.10;99915.41;5053735;28;20048;-73
2021/05/17 08:13:55;;;;;;;8.68;2.45;;;;;;;18.89;46.09;99917.28;5056929;28;20120;-74
2021/05/17 08:16:23;;;;;;;8.20;2.13;;;;;;;18.93;46.15;99926.53;5034240;28;20493;-73
2021/05/17 08:18:51;;;;;;;7.88;2.13;;;;;;;18.92;46.13;99916.03;5062400;28;20036;-74
2021/05/17 08:21:20;;;;;;;7.20;2.20;;;;;;;18.94;46.03;99920.09;5049442;28;20527;-73
2021/05/17 08:23:47;;;;;;;5.65;1.95;;;;;;;18.93;46.07;99921.16;5035168;28;20040;-73
2021/05/17 08:26:14;;;;;;;5.35;1.83;;;;;;;18.95;46.14;99923.59;5042510;28;20057;-74
2021/05/17 08:28:41;;;;;;;5.80;1.83;;;;;;;18.97;45.95;99922.34;5020715;28;20037;-72
2021/05/17 08:31:12;;;;;;;9.88;1.80;;;;;;;18.98;46.56;99925.84;5051076;28;20064;-73
2021/05/17 08:33:40;;;;;;;6.55;1.92;;;;;;;18.98;45.83;99918.59;5043684;28;20057;-73
2021/05/17 08:36:08;;;;;;;4.60;1.70;;;;;;;18.98;45.89;99926.66;5038606;28;20577;-73
2021/05/17 08:38:35;;;;;;;7.90;1.85;;;;;;;18.96;45.77;99930.63;5015581;28;20049;-73
2021/05/17 08:41:04;;;;;;;4.95;1.80;;;;;;;18.94;45.98;99919.31;5041893;28;20121;-73
2021/05/17 08:43:31;;;;;;;6.65;1.92;;;;;;;18.96;46.20;99928.75;5047973;28;20041;-75
2021/05/17 08:45:58;;;;;;;6.68;1.80;;;;;;;18.94;46.18;99925.47;4997685;28;20461;-74
2021/05/17 08:48:25;;;;;;;5.38;1.70;;;;;;;18.94;45.97;99930.84;5044281;28;20049;-73
2021/05/17 08:50:52;;;;;;;3.92;1.70;;;;;;;18.94;45.58;99935.41;5040618;28;20033;-73
2021/05/17 08:53:19;;;;;;;4.15;1.70;;;;;;;18.96;46.07;99939.50;5046270;28;20400;-74
2021/05/17 08:55:46;;;;;;;5.45;1.80;;;;;;;18.99;46.12;99933.69;5023480;28;20541;-75
2021/05/17 08:58:18;;;;;;;6.60;1.80;;;;;;;18.97;46.27;99941.16;5058625;28;20059;-73
2021/05/17 09:00:46;;;;;;;;;;;;;;;18.99;46.45;99936.38;5060506;28;20040;-73
2021/05/17 09:03:13;;;;;;;5.82;1.60;;;;;;;19.01;46.10;99944.22;5038943;28;19965;-74
2021/05/17 09:05:46;;;;;;;5.88;1.40;;;;;;;19.05;46.17;99933.81;5015138;28;20049;-74
2021/05/17 09:08:15;;;;;;;6.10;1.70;;;;;;;19.07;46.10;99939.78;5032966;28;20048;-73
2021/05/17 09:10:42;;;;;;;3.58;1.35;;;;;;;19.05;46.07;99934.63;5024988;28;20049;-73
2021/05/17 09:13:12;;;;;;;8.70;1.60;;;;;;;18.98;46.33;99929.34;5014540;28;20047;-74
2021/05/17 09:18:30;;;;;;;9.45;1.40;;;;;;;19.03;45.84;99928.66;5106698;27;20331;-72
2021/05/17 09:21:02;;;;;;;4.72;1.60;;;;;;;19.09;46.36;99940.38;5056691;28;20115;-72
2021/05/17 09:23:32;;;;;;;4.22;1.40;;;;;;;19.10;46.24;99937.47;5048985;28;20053;-74
2021/05/17 09:26:12;;;;;;;5.90;1.50;;;;;;;19.12;46.18;99929.16;5045754;28;20380;-74
2021/05/17 09:31:20;;;;;;;5.00;1.60;;;;;;;19.16;46.14;99923.09;5095413;27;20420;-74
2021/05/17 09:34:00;;;;;;;4.13;1.40;;;;;;;19.12;45.94;99926.47;5072128;28;20037;-74
2021/05/17 09:36:31;;;;;;;7.82;1.60;;;;;;;19.11;46.01;99925.63;5087767;28;20072;-73
2021/05/17 09:41:56;;;;;;;3.40;1.27;;;;;;;19.08;46.28;99923.44;5105563;27;20400;-74
2021/05/17 09:44:26;;;;;;;4.47;1.35;;;;;;;19.11;46.21;99928.31;5074855;28;20044;-74
2021/05/17 09:49:41;;;;;;;3.92;1.35;;;;;;;19.21;46.12;99930.47;5094984;27;20847;-71
2021/05/17 09:52:21;;;;;;;4.00;1.25;;;;;;;19.25;45.67;99923.56;5059820;28;20036;-73
2021/05/17 09:55:07;;;;;;;3.60;1.13;;;;;;;19.29;45.70;99919.38;5057787;28;20098;-75
2021/05/17 09:57:37;;;;;;;8.55;4.22;;;;;;;19.31;45.49;99917.25;5078885;28;20111;-74
2021/05/17 10:00:27;;;;;;;31.30;18.55;;;;;;;19.40;45.09;99903.50;5038880;28;20045;-74
2021/05/17 10:02:55;;;;;;;25.40;15.90;;;;;;;19.36;45.52;99914.69;5065680;28;20045;-74
2021/05/17 10:05:33;;;;;;;23.33;14.70;;;;;;;19.28;45.63;99911.53;5085839;28;20130;-74
2021/05/17 10:08:04;;;;;;;20.60;12.48;;;;;;;19.21;45.77;99914.34;5051527;28;20033;-75
2021/05/17 10:10:41;;;;;;;21.58;12.40;;;;;;;19.16;46.09;99911.53;5068281;28;20044;-76
2021/05/17 10:13:08;;;;;;;21.00;12.15;;;;;;;19.13;46.00;99915.47;5084603;28;20053;-75
2021/05/17 10:15:36;;;;;;;19.17;11.90;;;;;;;19.12;46.12;99913.84;5053460;28;20041;-75
2021/05/17 10:18:08;;;;;;;20.48;11.15;;;;;;;19.05;46.05;99920.38;5044781;28;20045;-74
2021/05/17 10:20:35;;;;;;;17.30;10.82;;;;;;;19.14;46.25;99946.69;5052491;28;20039;-73
2021/05/17 10:23:04;;;;;;;19.35;11.85;;;;;;;19.17;46.11;99950.78;5061499;28;20117;-74
2021/05/17 10:25:34;;;;;;;17.77;10.80;;;;;;;19.12;46.00;99938.03;5067938;28;20045;-74
2021/05/17 10:28:19;;;;;;;17.50;10.70;;;;;;;19.14;46.26;99941.31;5052396;28;20059;-75
2021/05/17 10:30:47;;;;;;;20.48;10.23;;;;;;;19.07;46.33;99923.66;5041177;28;20055;-74
2021/05/17 10:33:27;;;;;;;18.63;10.13;;;;;;;19.18;46.24;99934.41;5062060;28;20044;-75
2021/05/17 10:35:55;;;;;;;17.98;10.15;;;;;;;19.20;46.39;99934.19;5067050;28;20485;-75
2021/05/17 10:38:47;;;;;;;15.88;9.30;;;;;;;19.23;46.09;99933.75;5058735;28;20462;-76
2021/05/17 10:46:53;;;;;;;13.85;8.68;;;;;;;19.53;45.53;99924.78;5104898;28;20485;-74
2021/05/17 10:49:29;;;;;;;13.82;7.88;;;;;;;19.44;46.07;99918.09;5112351;28;20039;-73
2021/05/17 10:52:19;;;;;;;12.48;7.35;;;;;;;19.38;46.12;99927.91;5097139;28;20036;-73
2021/05/17 10:54:48;;;;;;;13.23;7.80;;;;;;;19.35;46.25;99937.25;5109542;28;20051;-74
2021/05/17 11:00:26;;;;;;;14.63;7.72;;;;;;;19.30;46.44;99926.41;5117582;27;20125;-74
2021/05/17 11:02:43;;;;;;;13.38;7.10;;;;;;;19.28;46.42;99925.81;5108302;28;20039;-73
2021/05/17 11:05:20;;;;;;;13.35;7.13;;;;;;;19.25;46.60;99937.03;5086950;28;20052;-73
2021/05/17 11:07:51;;;;;;;13.65;7.15;;;;;;;19.25;46.65;99936.22;5078090;28;20852;-75
2021/05/17 11:10:22;;;;;;;11.70;6.50;;;;;;;19.30;46.21;99923.72;5107053;28;20035;-74
2021/05/17 11:13:06;;;;;;;13.95;6.15;;;;;;;19.46;45.77;99919.50;5099950;28;20040;-74
2021/05/17 11:16:00;;;;;;;12.23;6.65;;;;;;;19.68;45.38;99935.06;5053098;28;20052;-75
2021/05/17 11:18:43;;;;;;;11.18;5.50;;;;;;;19.55;45.76;99939.66;5101734;28;20036;-73
2021/05/17 11:21:13;;;;;;;12.32;6.28;;;;;;;19.57;45.85;99942.06;5057286;28;20515;-74
2021/05/17 11:23:45;;;;;;;18.45;10.80;;;;;;;19.49;45.55;99954.00;5080014;28;20040;-73
2021/05/17 11:26:15;;;;;;;21.30;13.73;;;;;;;19.47;45.64;99949.91;5096065;28;20047;-72
2021/05/17 11:34:11;;;;;;;23.83;14.82;;;;;;;19.28;46.36;99947.31;5107003;27;20415;-72
2021/05/17 11:36:43;;;;;;;23.92;14.07;;;;;;;19.31;46.33;99948.72;5081009;28;20090;-73
2021/05/17 11:39:16;;;;;;;23.88;14.55;;;;;;;19.38;46.34;99963.69;5053838;28;20048;-73
2021/05/17 11:42:20;;;;;;;22.60;14.27;;;;;;;19.37;46.47;99969.28;5069813;28;20052;-71
2021/05/17 11:45:24;;;;;;;21.10;13.60;;;;;;;19.37;46.67;99964.75;5047103;28;20036;-72
2021/05/17 11:47:52;;;;;;;22.58;12.82;;;;;;;19.34;46.57;99965.22;5074785;28;20485;-72
2021/05/17 11:50:20;;;;;;;20.20;13.10;;;;;;;19.33;46.93;99963.56;5040915;28;20039;-74
2021/05/17 11:52:47;;;;;;;20.17;12.85;;;;;;;19.34;46.67;99959.84;5076511;28;20046;-73
2021/05/17 11:55:14;;;;;;;19.83;12.77;;;;;;;19.31;46.92;99962.16;5057254;28;20438;-73
2021/05/17 11:57:42;;;;;;;17.70;11.90;;;;;;;19.30;46.69;99966.72;5052145;28;20052;-73
2021/05/17 12:00:24;;;;;;;19.80;13.05;;;;;;;19.30;46.62;99968.56;5056466;28;20067;-74
2021/05/17 12:02:53;;;;;;;16.88;11.20;;;;;;;19.29;46.76;99961.56;5069608;28;20044;-73
2021/05/17 12:05:22;;;;;;;17.95;10.48;;;;;;;19.29;47.09;99964.28;5037839;28;20083;-74
2021/05/17 12:07:52;;;;;;;18.52;10.77;;;;;;;19.26;47.15;99957.47;5054366;28;20281;-74
2021/05/17 12:10:21;;;;;;;16.40;10.65;;;;;;;19.25;47.42;99966.59;5054716;28;20401;-73
2021/05/17 12:12:51;;;;;;;16.52;10.68;;;;;;;19.27;47.14;99963.69;5063620;28;20060;-73
2021/05/17 12:15:20;;;;;;;16.95;9.77;;;;;;;19.16;47.39;99938.41;5047057;28;20037;-73
2021/05/17 12:17:48;;;;;;;16.63;9.25;;;;;;;19.28;47.34;99968.84;5085470;28;20045;-73
2021/05/17 12:20:17;;;;;;;14.63;8.75;;;;;;;19.34;47.36;99961.72;5052564;28;20424;-72
2021/05/17 12:22:47;;;;;;;13.90;8.95;;;;;;;19.33;47.26;99960.88;5087028;28;20499;-74
2021/05/17 12:25:17;;;;;;;17.92;8.82;;;;;;;19.34;47.28;99959.84;5045489;28;20059;-72